Latest Weather Observations for Tarcoola

IDS60801

Issued at 2:02 am CDT Saturday 10 December 2016 (issued every 30 minutes, with the page automatically refreshed every 10 minutes)

About weather observations | Map of weather stations | Latest weather observations for SA | Other Formats
Station Details ID: 016098 Name: TARCOOLA AERO Lat: -30.71 Lon: 134.58 Height: 123.0 m
Data from the previous 72 hours. | See also: Recent months at Tarcoola
Date/Time
CDT
Temp
°C
App
Temp
°C
Dew
Point
°C
Rel
Hum
%
Delta-T
°C
Wind Press
QNH
hPa
Press
MSL
hPa
Rain since
9am
mm
Dir  Spd
km/h
Gust
km/h
Spd
kts
Gust
kts
10/02:00am 16.8 12.5 1.3 35 6.9 SSW 13 17 7 9 1020.0 1019.4 0.0
10/01:30am 18.0 14.0 0.6 31 7.7 ESE 11 11 6 6 1020.0 1019.4 0.0
10/01:00am 18.5 14.5 0.6 30 7.9 ESE 11 13 6 7 1020.3 1019.7 0.0
10/12:30am 19.1 15.1 0.7 29 8.2 ESE 11 13 6 7 1020.6 1019.9 0.0
10/12:00am 18.7 15.2 1.2 31 7.9 E 9 11 5 6 1020.6 1019.9 0.0
 
Date/Time
CDT
Temp
°C
App
Temp
°C
Dew
Point
°C
Rel
Hum
%
Delta-T
°C
Wind Press
QNH
hPa
Press
MSL
hPa
Rain since
9am
mm
Dir  Spd
km/h
Gust
km/h
Spd
kts
Gust
kts
09/11:30pm 19.8 15.9 1.3 29 8.4 E 11 13 6 7 1020.7 1020.0 0.0
09/11:00pm 21.1 16.9 1.9 28 8.9 E 13 15 7 8 1020.5 1019.8 0.0
09/10:30pm 21.7 17.6 2.4 28 9.1 E 13 17 7 9 1020.5 1019.8 0.0
09/10:00pm 22.6 18.6 2.7 27 9.5 E 13 17 7 9 1020.1 1019.5 0.0
09/09:30pm 23.4 19.0 2.8 26 9.9 ESE 15 20 8 11 1020.0 1019.4 0.0
09/09:00pm 23.9 19.9 2.7 25 10.2 ESE 13 19 7 10 1019.9 1019.3 0.0
09/08:30pm 24.8 20.3 2.3 23 10.8 ESE 15 20 8 11 1019.6 1019.0 0.0
09/08:00pm 25.9 21.0 1.9 21 11.6 ESE 17 20 9 11 1019.4 1018.8 0.0
09/07:30pm 26.7 22.2 1.9 20 12.0 E 15 22 8 12 1019.1 1018.5 0.0
09/07:00pm 27.1 22.5 1.5 19 12.4 SE 15 22 8 12 1018.8 1018.2 0.0
09/06:30pm 27.3 22.5 0.1 17 12.8 ESE 15 24 8 13 1018.7 1018.1 0.0
09/06:00pm 27.4 22.7 1.0 18 12.6 ESE 15 26 8 14 1018.6 1018.0 0.0
09/05:30pm 27.4 22.3 1.0 18 12.6 S 17 24 9 13 1018.6 1018.0 0.0
09/05:00pm 27.1 23.5 0.8 18 12.5 ESE 9 20 5 11 1018.7 1018.1 0.0
09/04:30pm 27.5 23.1 0.3 17 12.9 SE 13 22 7 12 1019.0 1018.4 0.0
09/04:00pm 26.9 22.0 -0.2 17 12.7 SE 15 30 8 16 1019.3 1018.7 0.0
09/03:30pm 26.1 20.2 -0.8 17 12.3 S 20 28 11 15 1019.6 1019.0 0.0
09/03:00pm 25.9 21.2 1.2 20 11.7 SE 15 24 8 13 1019.9 1019.3 0.0
09/02:30pm 24.8 20.1 1.0 21 11.2 ESE 15 26 8 14 1020.3 1019.7 0.0
09/02:00pm 24.5 21.0 1.4 22 10.9 SE 9 22 5 12 1020.7 1020.0 0.0
09/01:30pm 23.3 18.4 2.2 25 10.0 SE 17 24 9 13 1021.2 1020.5 0.0
09/01:00pm 22.0 17.4 1.6 26 9.5 SE 15 26 8 14 1021.8 1021.1 0.0
09/12:30pm 22.3 17.6 2.9 28 9.3 SE 17 32 9 17 1022.0 1021.3 0.0
09/12:00pm 21.1 17.8 2.4 29 8.8 SE 9 24 5 13 1022.2 1021.6 0.0
09/11:30am 21.1 17.2 3.3 31 8.5 ESE 13 24 7 13 1022.5 1021.9 0.0
09/11:00am 19.4 15.2 3.6 35 7.5 SE 15 24 8 13 1022.7 1022.1 0.0
09/10:30am 18.2 14.0 4.0 39 6.7 SE 15 24 8 13 1022.9 1022.3 0.0
09/10:00am 17.9 13.2 3.4 38 6.8 ESE 17 26 9 14 1022.8 1022.2 0.0
09/09:30am 17.5 12.7 4.8 43 6.1 ESE 19 28 10 15 1023.0 1022.4 0.0
09/09:00am 16.4 12.0 4.8 46 5.5 SE 17 24 9 13 1023.1 1022.5 0.0
09/08:30am 15.4 10.7 5.9 53 4.6 SSE 20 28 11 15 1022.8 1022.2 0.0
09/08:00am 14.6 11.0 6.7 59 3.9 SSE 15 22 8 12 1022.6 1022.0 0.0
09/07:30am 12.4 9.1 6.5 67 2.8 SSE 13 17 7 9 1022.2 1021.6 0.0
09/07:00am 10.7 8.2 6.5 75 2.0 S 9 13 5 7 1022.1 1021.5 0.0
09/06:30am 8.5 5.7 5.3 80 1.4 SSW 9 11 5 6 1021.7 1021.0 0.0
09/06:00am 9.1 6.8 5.5 78 1.6 S 7 9 4 5 1021.5 1020.8 0.0
09/05:30am 9.7 7.0 5.7 76 1.8 S 9 11 5 6 1021.2 1020.5 0.0
09/05:00am 9.7 7.0 5.5 75 1.9 SSW 9 9 5 5 1021.2 1020.5 0.0
09/04:30am 9.9 7.5 5.3 73 2.1 SSW 7 9 4 5 1020.9 1020.2 0.0
09/04:00am 10.5 8.2 5.5 71 2.3 SSW 7 9 4 5 1020.9 1020.2 0.0
09/03:30am 11.6 9.4 6.1 69 2.6 S 7 9 4 5 1020.7 1020.0 0.0
09/03:00am 12.5 10.3 6.3 66 2.9 S 7 11 4 6 1020.7 1020.0 0.0
09/02:30am 13.4 10.9 6.5 63 3.3 S 9 15 5 8 1020.8 1020.1 0.0
09/02:00am 13.8 10.1 6.4 61 3.6 SSW 15 19 8 10 1020.7 1020.0 0.0
09/01:30am 14.2 10.1 6.3 59 3.8 SSW 17 22 9 12 1020.9 1020.2 0.0
09/01:00am 14.6 10.8 5.9 56 4.2 SSW 15 20 8 11 1021.1 1020.4 0.0
09/12:30am 14.9 11.0 5.4 53 4.5 SSW 15 19 8 10 1021.0 1020.3 0.0
09/12:00am 15.4 11.0 5.0 50 4.9 SSW 17 22 9 12 1021.0 1020.3 0.0
 
Date/Time
CDT
Temp
°C
App
Temp
°C
Dew
Point
°C
Rel
Hum
%
Delta-T
°C
Wind Press
QNH
hPa
Press
MSL
hPa
Rain since
9am
mm
Dir  Spd
km/h
Gust
km/h
Spd
kts
Gust
kts
08/11:30pm 16.0 11.0 4.7 47 5.3 SSW 20 28 11 15 1021.0 1020.3 0.0
08/11:00pm 16.5 11.0 4.2 44 5.8 SSW 22 30 12 16 1020.8 1020.1 0.0
08/10:30pm 17.1 12.2 5.1 45 5.8 SSW 20 32 11 17 1020.0 1019.4 0.0
08/10:00pm 17.6 12.0 5.5 45 5.9 SSW 24 39 13 21 1019.5 1018.9 0.0
08/09:30pm 18.2 12.1 4.7 41 6.5 SSW 26 39 14 21 1019.1 1018.5 0.0
08/09:00pm 18.9 12.4 4.7 39 6.9 SSW 28 39 15 21 1018.5 1017.9 0.0
08/08:30pm 19.8 13.0 3.1 33 7.9 SSW 28 37 15 20 1017.9 1017.3 0.0
08/08:00pm 20.8 13.1 2.1 29 8.7 SSW 32 41 17 22 1017.3 1016.7 0.0
08/07:35pm 21.6 13.8 1.8 27 9.2 SSW 32 52 17 28 1016.8 1016.2 0.0
08/07:30pm 21.9 14.3 2.6 28 9.1 SSW 32 41 17 22 1016.8 1016.2 0.0
08/07:00pm 22.9 15.0 1.3 24 10.1 SSW 32 41 17 22 1016.2 1015.6 0.0
08/06:30pm 23.6 15.8 1.9 24 10.3 SSW 32 46 17 25 1015.8 1015.2 0.0
08/06:00pm 24.4 17.2 3.1 25 10.4 SW 30 44 16 24 1015.5 1014.9 0.0
08/05:30pm 24.8 16.9 4.5 27 10.2 SSW 35 52 19 28 1015.3 1014.7 0.0
08/05:00pm 25.0 17.4 3.0 24 10.8 SW 32 48 17 26 1015.1 1014.5 0.0
08/04:33pm 25.7 18.2 3.6 24 11.0 SW 32 50 17 27 1014.8 1014.1 0.0
08/04:30pm 25.7 18.2 3.6 24 11.0 SW 32 44 17 24 1014.9 1014.3 0.0
08/04:02pm 25.0 17.3 3.6 25 10.6 SW 33 52 18 28 1015.0 1014.4 0.0
08/04:00pm 25.2 17.2 3.8 25 10.6 SW 35 52 19 28 1015.0 1014.4 0.0
08/03:38pm 25.6 18.1 4.7 26 10.6 SSW 33 52 18 28 1014.9 1014.3 0.0
08/03:30pm 25.7 17.9 4.8 26 10.6 SSW 35 48 19 26 1014.9 1014.3 0.0
08/03:25pm 25.1 17.6 3.7 25 10.6 SW 32 48 17 26 1014.8 1014.1 0.0
08/03:08pm 25.3 17.8 3.3 24 10.8 SW 32 50 17 27 1014.9 1014.3 0.0
08/03:00pm 25.9 19.0 4.4 25 10.8 SW 30 44 16 24 1015.1 1014.5 0.0
08/02:37pm 24.9 18.0 4.6 27 10.2 SW 30 56 16 30 1015.1 1014.5 0.0
08/02:30pm 25.1 17.7 4.8 27 10.3 SSW 33 46 18 25 1015.2 1014.6 0.0
08/02:19pm 25.4 18.3 5.6 28 10.2 SW 32 50 17 27 1015.3 1014.7 0.0
08/02:00pm 25.6 18.2 5.2 27 10.4 SW 33 50 18 27 1015.4 1014.8 0.0
08/01:30pm 23.9 16.7 4.8 29 9.6 SW 32 54 17 29 1015.6 1015.0 0.0
08/01:01pm 24.2 16.8 4.0 27 10.0 SW 32 50 17 27 1015.8 1015.2 0.0
08/01:00pm 24.8 17.9 4.5 27 10.2 SW 30 44 16 24 1015.9 1015.3 0.0
08/12:49pm 24.1 16.7 4.0 27 10.0 SW 32 50 17 27 1016.0 1015.4 0.0
08/12:30pm 23.4 15.8 3.9 28 9.6 SW 33 46 18 25 1016.1 1015.5 0.0
08/12:00pm 22.6 15.9 5.5 33 8.6 SW 30 46 16 25 1016.1 1015.5 0.0
08/11:30am 21.7 15.2 6.4 37 7.8 SW 30 44 16 24 1016.1 1015.5 0.0
08/11:00am 21.2 14.0 5.9 37 7.7 SSW 33 44 18 24 1016.0 1015.4 0.0
08/10:43am 20.8 14.2 6.0 38 7.4 SW 30 50 16 27 1016.0 1015.4 0.0
08/10:30am 20.3 12.7 5.9 39 7.2 SW 35 46 19 25 1015.9 1015.3 0.0
08/10:16am 20.1 13.0 5.7 39 7.2 SW 32 50 17 27 1015.7 1015.1 0.0
08/10:00am 20.2 14.1 6.5 41 6.9 SW 28 39 15 21 1015.7 1015.1 0.0
08/09:30am 19.4 12.6 5.1 39 7.0 SW 30 43 16 23 1015.6 1015.0 0.0
08/09:00am 18.2 11.3 6.4 46 5.9 SW 32 43 17 23 1015.5 1014.9 1.4
08/08:30am 17.4 10.6 6.9 50 5.2 SW 32 41 17 22 1015.2 1014.6 1.4
08/08:00am 16.6 10.7 7.5 55 4.6 SW 28 39 15 21 1014.7 1014.0 1.4
08/07:30am 15.8 11.1 7.8 59 4.0 SW 22 32 12 17 1014.2 1013.5 1.4
08/07:00am 15.0 11.0 8.3 64 3.4 SW 19 26 10 14 1014.0 1013.3 1.4
08/06:30am 14.8 10.3 8.5 66 3.2 SW 22 32 12 17 1013.4 1012.7 1.4
08/06:00am 15.1 10.2 8.6 65 3.3 SW 24 39 13 21 1012.9 1012.2 1.4
08/05:30am 15.5 9.8 8.5 63 3.6 SW 28 41 15 22 1012.6 1011.9 1.4
08/05:00am 15.8 9.8 8.8 63 3.6 SW 30 48 16 26 1012.0 1011.3 1.4
08/04:31am 16.2 10.3 9.2 63 3.6 SW 30 48 16 26 1011.1 1010.5 1.4
08/04:30am 16.2 10.0 9.2 63 3.6 SW 32 48 17 26 1011.1 1010.5 1.4
08/04:00am 16.8 9.9 9.0 60 4.1 SW 35 61 19 33 1010.3 1009.7 1.4
08/03:36am 17.2 10.9 8.9 58 4.3 SW 32 50 17 27 1010.2 1009.6 1.4
08/03:30am 17.2 11.6 10.1 63 3.8 SW 30 43 16 23 1010.1 1009.5 1.4
08/03:00am 18.1 11.0 11.0 63 3.9 SW 39 54 21 29 1010.0 1009.4 1.4
08/02:44am 18.3 13.0 11.1 63 3.9 SW 30 54 16 29 1009.5 1008.9 1.4
08/02:30am 18.4 13.8 12.2 67 3.5 SW 28 39 15 21 1009.5 1008.9 1.4
08/02:00am 18.3 13.5 11.8 66 3.6 SW 28 41 15 22 1009.6 1009.0 1.4
08/01:30am 17.6 12.3 13.1 75 2.5 SW 33 46 18 25 1009.0 1008.4 1.4
08/01:10am 19.9 14.7 12.7 63 4.1 SW 32 50 17 27 1009.9 1009.3 0.8
08/01:00am 20.4 13.9 12.9 62 4.3 SW 39 57 21 31 1010.8 1010.2 0.8
08/12:58am 20.6 14.0 12.6 60 4.5 SW 39 57 21 31 1011.1 1010.5 0.8
08/12:56am 20.7 13.9 11.9 57 4.9 SW 39 57 21 31 1010.0 1009.4 0.8
08/12:30am 21.6 15.5 14.0 62 4.4 SW 39 54 21 29 1008.2 1007.6 0.8
08/12:06am 23.0 16.5 15.1 61 4.7 SW 43 61 23 33 1007.8 1007.2 0.8
08/12:00am 23.5 17.6 15.8 62 4.7 WSW 41 57 22 31 1007.7 1007.1 0.8
 
Date/Time
CDT
Temp
°C
App
Temp
°C
Dew
Point
°C
Rel
Hum
%
Delta-T
°C
Wind Press
QNH
hPa
Press
MSL
hPa
Rain since
9am
mm
Dir  Spd
km/h
Gust
km/h
Spd
kts
Gust
kts
07/11:32pm 27.2 21.8 15.9 50 7.0 SW 39 57 21 31 1006.1 1005.4 0.8
07/11:30pm 27.3 21.5 16.0 50 7.0 SW 41 57 22 31 1005.9 1005.2 0.8
07/11:09pm 27.9 23.7 16.2 49 7.3 WSW 33 57 18 31 1005.7 1005.0 0.8
07/11:00pm 26.2 23.2 17.8 60 5.3 W 30 43 16 23 1005.8 1005.1 0.8
07/10:44pm 30.1 26.3 14.6 39 9.5 WNW 28 69 15 37 1005.8 1005.1 0.2
07/10:30pm 33.3 29.2 13.9 31 11.9 N 28 43 15 23 1004.0 1003.3 0.2
07/10:00pm 33.2 28.2 13.3 30 12.1 N 32 43 17 23 1003.2 1002.6 0.2
07/09:30pm 33.5 29.3 13.5 29 12.2 N 28 39 15 21 1003.2 1002.6 0.2
07/09:00pm 34.0 29.4 13.5 29 12.5 N 30 43 16 23 1003.7 1003.0 0.2
07/08:30pm 34.2 30.2 13.1 28 12.8 N 26 35 14 19 1003.7 1003.0 0.2
07/08:00pm 34.7 29.6 13.0 27 13.2 N 32 44 17 24 1003.6 1002.9 0.2
07/07:30pm 35.6 31.1 12.5 24 14.0 N 28 35 15 19 1003.4 1002.8 0.2
07/07:00pm 35.8 30.6 13.3 26 13.8 N 33 44 18 24 1003.4 1002.8 0.2
07/06:30pm 36.8 31.6 11.6 22 15.2 N 30 46 16 25 1003.8 1003.1 0.2
07/06:00pm 35.9 31.3 12.2 24 14.3 N 28 43 15 23 1004.4 1003.7 0.2
07/05:49pm 36.6 31.2 12.1 23 14.8 NNW 32 50 17 27 1004.5 1003.8 0.2
07/05:30pm 36.7 31.3 12.2 23 14.9 N 32 48 17 26 1004.9 1004.2 0.2
07/05:22pm 36.8 32.0 11.6 22 15.1 N 28 48 15 26 1005.1 1004.4 0.2
07/05:00pm 37.0 31.5 11.8 22 15.2 N 32 48 17 26 1005.6 1004.9 0.2
07/04:38pm 35.9 31.3 12.2 24 14.3 N 28 46 15 25 1006.0 1005.3 0.2
07/04:30pm 36.1 30.7 12.3 24 14.4 N 32 48 17 26 1006.4 1005.7 0.2
07/04:27pm 36.5 31.4 12.0 23 14.8 N 30 48 16 26 1006.4 1005.7 0.2
07/04:00pm 35.8 29.8 12.1 24 14.3 NNW 35 50 19 27 1007.1 1006.4 0.2
07/03:52pm 36.7 31.9 12.8 24 14.6 NNW 30 50 16 27 1007.0 1006.3 0.2
07/03:30pm 35.5 31.7 12.5 25 13.9 NNW 24 41 13 22 1007.5 1006.8 0.2
07/03:17pm 35.1 30.8 13.3 27 13.3 NNW 28 46 15 25 1007.8 1007.2 0.2
07/03:00pm 35.2 31.3 12.2 25 13.8 NNW 24 35 13 19 1008.0 1007.4 0.2
07/02:30pm 36.2 32.0 13.6 25 13.9 N 28 43 15 23 1008.6 1008.0 0.2
07/02:00pm 35.1 31.8 13.9 28 13.1 N 24 39 13 21 1009.0 1008.4 0.2
07/01:30pm 34.1 31.4 14.6 31 12.1 N 22 39 12 21 1009.8 1009.2 0.2
07/01:04pm 32.7 28.8 14.3 32 11.3 N 28 46 15 25 1010.3 1009.7 0.2
07/01:00pm 33.7 30.1 14.2 30 12.0 N 26 46 14 25 1010.4 1009.8 0.2
07/12:30pm 32.3 29.1 15.3 35 10.6 N 26 41 14 22 1010.8 1010.2 0.2
07/12:00pm 32.0 29.2 16.3 39 9.9 N 26 41 14 22 1011.4 1010.8 0.2
07/11:30am 32.1 29.5 16.8 40 9.7 N 26 37 14 20 1011.8 1011.2 0.2
07/11:16am 30.6 27.5 16.6 43 8.8 N 28 46 15 25 1012.2 1011.5 0.2
07/11:00am 30.0 26.6 16.8 45 8.3 N 30 41 16 22 1012.4 1011.7 0.2
07/10:30am 28.7 26.4 17.6 51 7.1 N 26 39 14 21 1012.8 1012.1 0.0
07/10:00am 28.1 26.4 18.2 55 6.3 N 24 33 13 18 1013.2 1012.5 0.0
07/09:30am 26.5 24.4 18.1 60 5.3 N 26 35 14 19 1013.4 1012.7 0.0
07/09:00am 25.5 22.8 18.4 65 4.5 N 30 35 16 19 1013.5 1012.8 3.0
07/08:30am 24.6 22.7 18.5 69 3.9 N 26 35 14 19 1013.6 1012.9 3.0
07/08:00am 23.6 21.6 18.3 72 3.3 N 26 33 14 18 1013.6 1012.9 3.0
07/07:30am 22.8 21.2 18.3 76 2.8 N 24 30 13 16 1013.7 1013.0 3.0
07/07:00am 22.1 21.8 18.3 79 2.4 N 17 20 9 11 1013.6 1012.9 3.0
07/06:30am 21.6 22.1 18.4 82 2.0 N 13 17 7 9 1013.4 1012.7 3.0
07/06:00am 21.8 21.8 18.2 80 2.3 NNE 15 20 8 11 1013.0 1012.3 3.0
07/05:30am 22.2 21.6 18.4 79 2.4 N 19 24 10 13 1012.9 1012.2 3.0
07/05:00am 22.2 22.3 18.4 79 2.4 NNE 15 19 8 10 1012.7 1012.0 3.0
07/04:30am 22.3 22.1 18.5 79 2.4 NE 17 20 9 11 1012.5 1011.8 3.0
07/04:00am 22.3 22.5 18.5 79 2.4 NNE 15 19 8 10 1012.6 1011.9 3.0
07/03:30am 22.0 23.1 18.8 82 2.0 NNE 11 13 6 7 1012.8 1012.1 3.0
07/03:00am 22.3 23.3 18.7 80 2.3 NNE 11 13 6 7 1012.8 1012.1 3.0
07/02:30am 22.6 24.3 19.4 82 2.0 N 9 9 5 5 1012.8 1012.1 3.0

Other Formats:

Comma delimited format used in spreadsheet applications
http://www.bom.gov.au/fwo/IDS60801/IDS60801.94655.axf

JavaScript Object Notation format (JSON) in row-major order
http://www.bom.gov.au/fwo/IDS60801/IDS60801.94655.json